createdAt,value
2017-11-09T00:15:12.144Z,97.75
2017-11-09T00:17:39.206Z,98.15
2017-11-09T00:20:07.971Z,97.54
2017-11-09T00:22:34.894Z,96.30
2017-11-09T00:25:02.430Z,94.91
2017-11-09T00:27:30.000Z,94.50
2017-11-09T00:29:56.898Z,94.96
2017-11-09T00:32:23.733Z,97.41
2017-11-09T00:34:50.582Z,97.12
2017-11-09T00:37:17.419Z,97.22
2017-11-09T00:39:44.514Z,97.86
2017-11-09T00:42:11.463Z,97.37
2017-11-09T00:44:39.394Z,96.87
2017-11-09T00:47:06.845Z,96.02
2017-11-09T00:49:33.671Z,95.95
2017-11-09T00:52:00.568Z,94.67
2017-11-09T00:54:27.435Z,94.47
2017-11-09T00:56:55.031Z,95.22
2017-11-09T00:59:21.852Z,95.73
2017-11-09T01:01:48.684Z,96.95
2017-11-09T01:04:15.488Z,97.08
2017-11-09T01:06:42.492Z,97.55
2017-11-09T01:09:10.335Z,96.81
2017-11-09T01:11:38.071Z,96.71
2017-11-09T01:14:05.010Z,97.76
2017-11-09T01:16:31.884Z,97.85
2017-11-09T01:18:58.709Z,97.72
2017-11-09T01:21:25.652Z,97.78
2017-11-09T01:23:52.736Z,97.75
2017-11-09T01:26:20.649Z,97.64
2017-11-09T01:28:47.535Z,97.71
2017-11-09T01:31:14.509Z,97.20
2017-11-09T01:33:41.410Z,97.36
2017-11-09T01:36:08.523Z,97.56
2017-11-09T01:38:35.361Z,97.92
2017-11-09T01:41:02.296Z,97.77
2017-11-09T01:43:29.324Z,98.24
2017-11-09T01:45:56.225Z,98.13
2017-11-09T01:48:23.128Z,97.92
2017-11-09T01:50:49.983Z,97.16
2017-11-09T01:53:16.809Z,95.68
2017-11-09T01:55:44.905Z,94.97
2017-11-09T01:58:13.060Z,94.74
2017-11-09T02:00:39.925Z,94.74
2017-11-09T02:03:07.604Z,95.98
2017-11-09T02:05:34.492Z,97.53
2017-11-09T02:08:02.555Z,97.63
2017-11-09T02:10:30.748Z,95.66
2017-11-09T02:12:57.603Z,97.43
2017-11-09T02:15:24.498Z,96.88
2017-11-09T02:17:51.533Z,96.36
2017-11-09T02:20:18.430Z,97.44
2017-11-09T02:22:46.118Z,98.13
2017-11-09T02:25:13.147Z,98.54
2017-11-09T02:27:40.096Z,98.59
2017-11-09T02:30:07.059Z,98.26
2017-11-09T02:32:33.979Z,97.69
2017-11-09T02:35:00.853Z,98.19
2017-11-09T02:37:27.909Z,98.11
2017-11-09T02:39:54.802Z,97.19
2017-11-09T02:42:21.983Z,95.68
2017-11-09T02:44:49.648Z,95.75
2017-11-09T02:47:16.555Z,95.25
2017-11-09T02:49:43.538Z,95.89
2017-11-09T02:52:10.436Z,94.83
2017-11-09T02:54:37.343Z,94.58
2017-11-09T02:57:04.260Z,97.11
2017-11-09T02:59:31.217Z,97.90
2017-11-09T03:01:58.073Z,96.70
2017-11-09T03:04:24.936Z,96.88
2017-11-09T03:06:51.826Z,97.28
2017-11-09T03:09:18.712Z,97.42
2017-11-09T03:11:45.605Z,97.34
2017-11-09T03:14:12.460Z,97.21
2017-11-09T03:16:55.696Z,95.89
2017-11-09T03:19:23.545Z,95.01
2017-11-09T03:21:50.444Z,94.89
2017-11-09T03:24:17.320Z,96.66
2017-11-09T03:26:45.196Z,97.00
2017-11-09T03:29:12.076Z,96.37
2017-11-09T03:31:39.081Z,96.58
2017-11-09T03:34:05.965Z,96.81
2017-11-09T03:36:32.813Z,95.85
2017-11-09T03:39:00.585Z,95.92
2017-11-09T03:41:27.419Z,94.68
2017-11-09T03:43:55.076Z,95.13
2017-11-09T03:46:22.006Z,96.00
2017-11-09T03:48:48.844Z,97.36
2017-11-09T03:51:15.697Z,97.38
2017-11-09T03:53:42.548Z,97.27
2017-11-09T03:56:09.693Z,96.95
2017-11-09T03:58:36.521Z,97.84
2017-11-09T04:01:03.380Z,96.33
2017-11-09T04:03:30.249Z,97.25
2017-11-09T04:05:57.091Z,96.67
2017-11-09T04:08:23.949Z,95.83
2017-11-09T04:10:50.909Z,94.87
2017-11-09T04:13:18.055Z,94.67
2017-11-09T04:15:44.972Z,94.64
2017-11-09T04:18:11.827Z,94.91
2017-11-09T04:20:39.501Z,95.58
2017-11-09T04:23:06.353Z,94.72
2017-11-09T04:25:33.200Z,94.44
2017-11-09T04:28:01.013Z,94.89
2017-11-09T04:30:27.853Z,95.58
2017-11-09T04:32:54.694Z,95.07
2017-11-09T04:35:21.602Z,94.99
2017-11-09T04:37:48.456Z,94.95
2017-11-09T04:40:15.296Z,95.55
2017-11-09T04:42:42.171Z,94.98
2017-11-09T04:45:09.037Z,94.66
2017-11-09T04:47:36.504Z,94.20
2017-11-09T04:50:03.427Z,94.26
2017-11-09T04:52:30.281Z,94.20
2017-11-09T04:54:57.820Z,93.91
2017-11-09T04:57:24.671Z,93.77
2017-11-09T04:59:51.501Z,93.66
2017-11-09T05:02:18.325Z,94.18
2017-11-09T05:04:45.523Z,94.88
2017-11-09T05:07:12.438Z,95.56
2017-11-09T05:09:39.297Z,94.97
2017-11-09T05:12:06.187Z,93.98
2017-11-09T05:14:33.801Z,93.86
2017-11-09T05:17:04.381Z,94.14
2017-11-09T05:19:31.234Z,94.11
2017-11-09T05:21:58.083Z,94.16
2017-11-09T05:24:24.969Z,93.94
2017-11-09T05:26:51.815Z,93.70
2017-11-09T05:29:18.711Z,93.79
2017-11-09T05:31:46.485Z,93.68
2017-11-09T05:34:13.399Z,93.77
2017-11-09T05:36:40.272Z,93.87
2017-11-09T05:39:07.151Z,94.08
2017-11-09T05:41:34.084Z,93.98
2017-11-09T05:44:00.944Z,93.85
2017-11-09T05:46:27.799Z,93.64
2017-11-09T05:48:54.674Z,93.72
2017-11-09T05:51:22.339Z,94.08
2017-11-09T05:53:49.177Z,93.87
2017-11-09T05:56:16.115Z,93.92
2017-11-09T05:58:43.738Z,94.61
2017-11-09T06:01:11.016Z,94.01
2017-11-09T06:03:37.911Z,93.79
2017-11-09T06:06:04.776Z,93.64
2017-11-09T06:08:31.655Z,94.00
2017-11-09T06:11:00.152Z,94.43
2017-11-09T06:13:27.061Z,94.26
2017-11-09T06:15:54.495Z,94.09
2017-11-09T06:18:21.329Z,93.93
2017-11-09T06:20:48.207Z,94.02
2017-11-09T06:23:15.118Z,94.01
2017-11-09T06:25:41.981Z,94.05
2017-11-09T06:28:08.853Z,93.83
2017-11-09T06:30:36.157Z,94.05
2017-11-09T06:33:03.818Z,95.34
2017-11-09T06:35:30.675Z,94.43
2017-11-09T06:37:57.581Z,94.38
2017-11-09T06:40:24.549Z,94.23
2017-11-09T06:42:51.421Z,94.04
2017-11-09T06:45:18.317Z,94.09
2017-11-09T06:47:45.913Z,93.68
2017-11-09T06:50:12.784Z,93.54
2017-11-09T06:52:39.662Z,93.62
2017-11-09T06:55:06.580Z,93.57
2017-11-09T06:57:34.207Z,93.50
2017-11-09T07:00:01.067Z,93.11
2017-11-09T07:02:27.924Z,93.03
2017-11-09T07:04:54.861Z,93.63
2017-11-09T07:07:21.694Z,93.78
2017-11-09T07:09:48.506Z,94.23
2017-11-09T07:12:15.374Z,94.99
2017-11-09T07:14:42.235Z,93.81
2017-11-09T07:17:09.052Z,93.38
2017-11-09T07:19:36.607Z,93.55
2017-11-09T07:22:03.450Z,93.26
2017-11-09T07:24:30.299Z,93.32
2017-11-09T07:26:57.133Z,93.93
2017-11-09T07:29:23.979Z,94.18
2017-11-09T07:31:51.576Z,94.01
2017-11-09T07:34:18.448Z,94.41
2017-11-09T07:36:45.311Z,94.58
2017-11-09T07:39:12.894Z,93.31
2017-11-09T07:41:39.746Z,93.28
2017-11-09T07:44:06.618Z,92.95
2017-11-09T07:46:34.191Z,92.93
2017-11-09T07:49:01.039Z,93.14
2017-11-09T07:51:27.866Z,92.96
2017-11-09T07:53:55.447Z,92.91
2017-11-09T07:56:23.030Z,92.82
2017-11-09T07:58:50.620Z,92.35
2017-11-09T08:01:18.171Z,92.50
2017-11-09T08:03:45.009Z,92.20
2017-11-09T08:06:11.869Z,92.16
2017-11-09T08:08:38.702Z,92.92
2017-11-09T08:11:05.517Z,92.93
2017-11-09T08:13:32.315Z,92.33
2017-11-09T08:15:59.167Z,92.19
2017-11-09T08:18:26.002Z,92.70
2017-11-09T08:20:53.550Z,92.38
2017-11-09T08:23:20.414Z,92.16
2017-11-09T08:25:50.053Z,92.47
2017-11-09T08:28:20.732Z,93.00
2017-11-09T08:30:49.393Z,92.78
2017-11-09T08:33:18.199Z,92.90
2017-11-09T08:35:45.104Z,92.68
2017-11-09T08:38:12.713Z,92.18
2017-11-09T08:40:39.558Z,92.08
2017-11-09T08:43:06.388Z,91.87
2017-11-09T08:45:33.986Z,91.33
2017-11-09T08:48:00.840Z,91.62
2017-11-09T08:50:28.397Z,91.20
2017-11-09T08:52:55.199Z,91.07
2017-11-09T08:55:22.048Z,90.80
2017-11-09T08:57:48.906Z,90.64
2017-11-09T09:00:15.729Z,90.66
2017-11-09T09:02:42.558Z,90.29
2017-11-09T09:05:10.621Z,90.18
2017-11-09T09:07:38.820Z,89.82
2017-11-09T09:10:05.766Z,89.35
2017-11-09T09:12:33.563Z,89.80
2017-11-09T09:15:00.465Z,89.74
2017-11-09T09:17:27.392Z,89.68
2017-11-09T09:19:54.260Z,89.29
2017-11-09T09:56:35.585Z,87.46
2017-11-09T09:59:02.434Z,87.37
2017-11-09T10:01:29.297Z,87.39
2017-11-09T10:03:56.154Z,87.13
2017-11-09T10:06:22.997Z,87.21
2017-11-09T10:08:49.861Z,86.87
2017-11-09T10:11:16.665Z,86.78
2017-11-09T10:13:43.479Z,86.65
2017-11-09T10:16:11.040Z,86.73
2017-11-09T10:18:37.903Z,86.88
2017-11-09T10:21:04.744Z,87.04
2017-11-09T10:23:32.475Z,86.23
2017-11-09T10:26:00.158Z,86.15
2017-11-09T10:28:26.999Z,86.20
2017-11-09T10:30:53.803Z,85.66
2017-11-09T10:33:20.652Z,86.21
2017-11-09T10:35:47.504Z,86.02
2017-11-09T10:38:14.343Z,85.66
2017-11-09T10:40:41.188Z,85.77
2017-11-09T10:43:08.073Z,84.71
2017-11-09T10:45:34.981Z,84.43
2017-11-09T10:48:02.568Z,83.92
2017-11-09T10:50:30.159Z,83.60
2017-11-09T10:52:57.268Z,82.91
2017-11-09T10:55:24.089Z,82.61
2017-11-09T10:57:50.960Z,82.41
2017-11-09T11:00:17.849Z,80.00
2017-11-09T11:02:44.724Z,82.02
2017-11-09T11:05:11.629Z,81.47
2017-11-09T11:07:38.566Z,81.02
2017-11-09T11:10:06.201Z,80.91
2017-11-09T11:12:33.033Z,80.48
2017-11-09T11:15:00.595Z,79.98
2017-11-09T11:17:28.149Z,79.89
2017-11-09T11:19:54.960Z,78.18
2017-11-09T11:22:21.772Z,79.55
2017-11-09T11:24:48.589Z,80.08
2017-11-09T11:27:15.423Z,80.37
2017-11-09T11:29:43.045Z,79.63
2017-11-09T11:32:09.905Z,80.21
2017-11-09T11:34:36.740Z,79.54
2017-11-09T11:37:03.658Z,80.24
2017-11-09T11:39:30.529Z,79.56
2017-11-09T11:41:57.346Z,80.03
2017-11-09T11:44:24.177Z,79.86
2017-11-09T11:46:51.009Z,79.73
2017-11-09T11:49:17.857Z,79.34
2017-11-09T11:51:44.689Z,79.52
2017-11-09T11:54:11.534Z,78.91
2017-11-09T11:56:38.343Z,78.68
2017-11-09T11:59:05.155Z,79.09
2017-11-09T12:01:32.005Z,76.99
2017-11-09T12:03:58.833Z,78.22
2017-11-09T12:06:25.682Z,77.68
2017-11-09T12:08:52.544Z,77.20
2017-11-09T12:11:19.374Z,77.51
2017-11-09T12:13:46.244Z,76.60
2017-11-09T12:16:13.112Z,76.33
2017-11-09T12:18:39.926Z,76.38
2017-11-09T12:21:07.509Z,75.85
2017-11-09T12:23:35.063Z,75.57
2017-11-09T12:26:01.904Z,75.95
2017-11-09T12:28:28.752Z,75.93
2017-11-09T12:30:58.515Z,75.80
2017-11-09T12:33:25.342Z,75.02
2017-11-09T12:35:52.185Z,74.57
2017-11-09T12:38:19.030Z,74.44
2017-11-09T12:40:45.871Z,75.23
2017-11-09T12:43:13.483Z,74.65
2017-11-09T12:45:40.448Z,75.25
2017-11-09T12:48:07.367Z,75.11
2017-11-09T12:50:34.966Z,75.99
2017-11-09T12:53:02.517Z,75.74
2017-11-09T12:55:29.415Z,75.04
2017-11-09T12:57:56.248Z,75.32
2017-11-09T13:00:24.078Z,75.11
2017-11-09T13:02:50.946Z,75.73
2017-11-09T13:05:17.789Z,75.64
2017-11-09T13:07:44.624Z,75.52
2017-11-09T13:10:12.185Z,75.59
2017-11-09T13:12:39.036Z,75.35
2017-11-09T13:15:05.921Z,75.74
2017-11-09T13:17:33.565Z,76.03
2017-11-09T13:20:00.427Z,76.04
2017-11-09T13:22:27.297Z,76.11
2017-11-09T13:24:54.487Z,76.50
2017-11-09T13:27:22.108Z,76.98
2017-11-09T13:29:48.975Z,76.74
2017-11-09T13:32:15.868Z,76.51
2017-11-09T13:34:42.929Z,76.42
2017-11-09T13:37:10.878Z,76.31
2017-11-09T13:39:37.725Z,77.21
2017-11-09T13:42:04.571Z,76.73
2017-11-09T13:44:32.129Z,76.87
2017-11-09T13:46:59.431Z,76.87
2017-11-09T13:49:27.055Z,77.17
2017-11-09T13:51:53.965Z,77.22
2017-11-09T13:54:20.821Z,77.68
2017-11-09T13:56:48.564Z,76.71
2017-11-09T13:59:15.468Z,76.35
2017-11-09T14:01:43.027Z,76.69
2017-11-09T14:04:09.997Z,76.36
2017-11-09T14:06:36.818Z,76.27
2017-11-09T14:09:04.191Z,77.02
2017-11-09T14:11:31.027Z,77.04
2017-11-09T14:13:57.860Z,78.03
2017-11-09T14:16:25.473Z,77.87
2017-11-09T14:18:52.329Z,77.42
2017-11-09T14:21:19.598Z,76.86
2017-11-09T14:23:46.516Z,76.87
2017-11-09T14:26:13.393Z,77.08
2017-11-09T14:28:40.244Z,77.17
2017-11-09T14:31:07.082Z,76.66
2017-11-09T14:33:33.929Z,76.78
2017-11-09T14:36:00.779Z,76.80
2017-11-09T14:38:30.489Z,76.71
2017-11-09T14:40:59.803Z,76.83
2017-11-09T14:43:26.704Z,76.96
2017-11-09T14:45:53.542Z,77.16
2017-11-09T14:48:20.559Z,77.03
2017-11-09T14:50:47.380Z,77.22
2017-11-09T14:53:14.359Z,77.88
2017-11-09T14:55:41.193Z,77.67
2017-11-09T14:58:08.043Z,78.00
2017-11-09T15:00:34.890Z,78.17
2017-11-09T15:03:01.717Z,78.05
2017-11-09T15:05:28.563Z,78.22
2017-11-09T15:07:55.411Z,78.24
2017-11-09T15:10:22.268Z,78.26
2017-11-09T15:12:49.138Z,78.22
2017-11-09T15:15:16.417Z,78.93
2017-11-09T15:17:43.326Z,78.92
2017-11-09T15:20:10.981Z,79.62
2017-11-09T15:22:38.273Z,78.95
2017-11-09T15:25:07.339Z,79.17
2017-11-09T15:27:34.265Z,78.98
2017-11-09T15:30:01.164Z,79.34
2017-11-09T15:32:33.599Z,79.06
2017-11-09T15:35:01.237Z,79.56
2017-11-09T15:37:28.134Z,79.14
2017-11-09T15:39:54.946Z,79.54
2017-11-09T15:42:21.826Z,80.26
2017-11-09T15:44:48.691Z,79.89
2017-11-09T15:47:15.520Z,79.79
2017-11-09T15:49:42.425Z,80.01
2017-11-09T15:52:09.342Z,80.76
2017-11-09T15:54:36.205Z,80.19
2017-11-09T16:19:38.680Z,80.88
2017-11-09T16:22:05.549Z,82.08
2017-11-09T16:24:32.435Z,81.88
2017-11-09T16:26:59.308Z,82.13
2017-11-09T16:29:26.182Z,82.70
2017-11-09T16:31:53.091Z,81.66
2017-11-09T16:34:19.920Z,81.91
2017-11-09T16:36:46.773Z,81.95
2017-11-09T16:39:13.612Z,82.33
2017-11-09T16:41:40.505Z,81.71
2017-11-09T16:44:07.305Z,81.95
2017-11-09T16:46:34.164Z,82.10
2017-11-09T16:49:01.082Z,82.09
2017-11-09T16:51:27.942Z,83.15
2017-11-09T16:53:54.809Z,84.54
2017-11-09T16:56:21.704Z,83.22
2017-11-09T16:58:51.451Z,82.64
2017-11-09T17:01:18.304Z,83.29
2017-11-09T17:03:45.187Z,82.72
2017-11-09T17:06:12.031Z,82.82
2017-11-09T17:08:38.899Z,83.50
2017-11-09T17:11:10.079Z,83.42
2017-11-09T17:13:36.926Z,84.24
2017-11-09T17:16:03.802Z,83.67
2017-11-09T17:18:33.600Z,83.56
2017-11-09T17:21:00.489Z,84.13
2017-11-09T17:23:28.039Z,83.87
2017-11-09T17:25:54.932Z,83.95
2017-11-09T17:28:21.749Z,84.31
2017-11-09T17:30:48.568Z,84.61
2017-11-09T17:33:15.429Z,84.00
2017-11-09T17:35:42.263Z,84.09
2017-11-09T17:38:09.112Z,84.45
2017-11-09T17:40:35.942Z,84.34
2017-11-09T17:43:03.530Z,84.19
2017-11-09T17:45:31.148Z,85.09
2017-11-09T17:47:58.212Z,84.92
2017-11-09T17:50:25.792Z,84.85
2017-11-09T17:52:52.614Z,85.02
2017-11-09T17:55:19.438Z,84.84
2017-11-09T17:57:47.048Z,84.46
2017-11-09T18:00:17.479Z,84.32
2017-11-09T18:02:45.124Z,85.08
2017-11-09T18:05:12.003Z,84.61
2017-11-09T18:07:39.029Z,85.06
2017-11-09T18:10:05.875Z,84.37
2017-11-09T18:12:32.734Z,84.07
2017-11-09T18:14:59.577Z,84.79
2017-11-09T18:17:27.168Z,84.68
2017-11-09T18:19:54.719Z,85.04
2017-11-09T18:22:22.308Z,85.01
2017-11-09T18:24:49.232Z,84.83
2017-11-09T18:27:16.088Z,84.28
2017-11-09T18:29:42.931Z,84.29
2017-11-09T18:32:09.817Z,84.16
2017-11-09T18:34:36.686Z,84.50
2017-11-09T18:37:03.543Z,84.26
2017-11-09T18:39:30.507Z,84.07
2017-11-09T18:41:57.324Z,84.32
2017-11-09T18:44:24.934Z,84.37
2017-11-09T18:46:51.800Z,84.74
2017-11-09T18:49:18.712Z,84.57
2017-11-09T18:51:45.565Z,84.68
2017-11-09T18:54:13.293Z,84.77
2017-11-09T18:56:40.155Z,84.88
2017-11-09T18:59:13.369Z,84.51
2017-11-09T19:01:40.231Z,84.56
2017-11-09T19:04:07.349Z,85.40
2017-11-09T19:06:35.542Z,84.80
2017-11-09T19:09:08.165Z,84.76
2017-11-09T19:11:35.032Z,84.75
2017-11-09T19:14:01.905Z,85.01
2017-11-09T19:16:29.404Z,84.91
2017-11-09T19:18:56.268Z,84.66
2017-11-09T19:21:23.085Z,84.75
2017-11-09T19:23:50.058Z,84.84
2017-11-09T19:26:16.910Z,84.58
2017-11-09T19:28:43.919Z,84.58
2017-11-09T19:31:11.344Z,84.90
2017-11-09T19:33:38.250Z,85.08
2017-11-09T19:36:05.227Z,84.88
2017-11-09T19:38:33.563Z,84.83
2017-11-09T19:41:00.648Z,84.58
2017-11-09T19:43:27.624Z,84.91
2017-11-09T19:45:54.757Z,84.93
2017-11-09T19:48:21.675Z,84.57
2017-11-09T19:50:49.029Z,84.61
2017-11-09T19:53:17.243Z,84.63
2017-11-09T19:55:44.903Z,84.65
2017-11-09T19:58:11.760Z,84.82
2017-11-09T20:00:39.362Z,84.91
2017-11-09T20:03:06.270Z,84.47
2017-11-09T20:05:34.768Z,85.05
2017-11-09T20:08:03.048Z,84.97
2017-11-09T20:10:29.988Z,84.84
2017-11-09T20:12:56.857Z,84.49
2017-11-09T20:15:23.696Z,85.14
2017-11-09T20:17:50.562Z,84.42
2017-11-09T20:20:17.411Z,84.98
2017-11-09T20:22:44.229Z,85.49
2017-11-09T20:25:11.944Z,84.46
2017-11-09T20:27:38.762Z,84.57
2017-11-09T20:30:06.709Z,85.05
2017-11-09T20:32:34.194Z,84.63
2017-11-09T20:35:01.870Z,84.79
2017-11-09T20:37:28.712Z,84.66
2017-11-09T20:39:55.598Z,85.17
2017-11-09T20:42:22.439Z,84.59
2017-11-09T20:44:50.199Z,84.60
2017-11-09T20:47:17.150Z,84.60
2017-11-09T20:49:45.000Z,85.17
2017-11-09T20:52:13.606Z,84.88
2017-11-09T20:54:40.510Z,85.19
2017-11-09T20:57:07.713Z,86.17
2017-11-09T20:59:34.559Z,85.32
2017-11-09T21:02:01.411Z,85.65
2017-11-09T21:04:28.277Z,85.76
2017-11-09T21:06:55.191Z,85.87
2017-11-09T21:09:22.801Z,86.01
2017-11-09T21:11:50.054Z,86.31
2017-11-09T21:14:18.490Z,86.21
2017-11-09T21:16:45.355Z,86.38
2017-11-09T21:19:12.229Z,86.30
2017-11-09T21:21:39.116Z,86.66
2017-11-09T21:24:05.996Z,86.27
2017-11-09T21:26:33.646Z,86.62
2017-11-09T21:29:00.523Z,86.95
2017-11-09T21:31:27.406Z,87.36
2017-11-09T21:33:54.308Z,86.54
2017-11-09T21:36:21.195Z,87.12
2017-11-09T21:38:48.181Z,87.81
2017-11-09T21:41:15.775Z,86.91
2017-11-09T21:43:43.345Z,86.93
2017-11-09T21:46:10.930Z,87.05
2017-11-09T21:48:37.776Z,87.47
2017-11-09T21:51:10.196Z,87.53
2017-11-09T21:53:37.013Z,87.63
2017-11-09T21:56:03.868Z,87.79
2017-11-09T21:58:30.705Z,87.70
2017-11-09T22:00:57.585Z,87.85
2017-11-09T22:03:24.421Z,88.23
2017-11-09T22:05:51.320Z,87.57
2017-11-09T22:08:18.173Z,87.55
2017-11-09T22:10:45.021Z,87.40
2017-11-09T22:13:11.846Z,88.02
2017-11-09T22:15:38.657Z,87.57
2017-11-09T22:18:05.543Z,87.81
2017-11-09T22:20:33.121Z,87.44
2017-11-09T22:23:00.717Z,88.22
2017-11-09T22:25:27.571Z,87.50
2017-11-09T22:27:55.224Z,87.73
2017-11-09T22:30:22.113Z,87.79
2017-11-09T22:32:49.022Z,88.56
2017-11-09T22:35:16.282Z,88.05
2017-11-09T22:37:43.613Z,87.60
2017-11-09T22:40:10.559Z,88.85
2017-11-09T22:42:37.424Z,88.38
2017-11-09T22:45:05.069Z,87.64
2017-11-09T22:47:31.921Z,87.84
2017-11-09T22:49:58.783Z,88.12
2017-11-09T22:52:25.659Z,88.18
2017-11-09T22:54:52.485Z,87.96
2017-11-09T22:57:19.389Z,88.21
2017-11-09T22:59:46.275Z,88.89
2017-11-09T23:02:13.129Z,88.67
2017-11-09T23:04:40.009Z,89.62
2017-11-09T23:07:07.608Z,89.46
2017-11-09T23:09:34.555Z,89.79
2017-11-09T23:12:02.212Z,89.44
2017-11-09T23:14:29.107Z,90.17
2017-11-09T23:16:56.031Z,90.08
2017-11-09T23:19:22.867Z,90.60
2017-11-09T23:21:49.744Z,89.87
2017-11-09T23:24:16.594Z,91.91
2017-11-09T23:26:43.479Z,91.88
2017-11-09T23:29:10.339Z,91.11
2017-11-09T23:31:37.222Z,91.56
2017-11-09T23:34:04.863Z,91.81
2017-11-09T23:36:31.752Z,91.94
2017-11-09T23:38:58.626Z,91.58
2017-11-09T23:41:26.398Z,92.55
2017-11-09T23:43:53.281Z,93.47
2017-11-09T23:46:20.902Z,92.92
2017-11-09T23:48:47.761Z,92.19
2017-11-09T23:51:14.621Z,91.96
2017-11-09T23:53:41.528Z,92.35
2017-11-09T23:56:09.106Z,92.19
2017-11-09T23:58:35.982Z,92.44
